sensor_id;sensor_type;location;lat;lon;timestamp;P1;durP1;ratioP1;P2;durP2;ratioP2
64678;SDS011;51094;53.864;27.676;2023-05-21T00:02:03;1.20;;;1.20;;
64678;SDS011;51094;53.864;27.676;2023-05-21T00:04:30;2.55;;;1.33;;
64678;SDS011;51094;53.864;27.676;2023-05-21T00:06:59;1.13;;;1.13;;
64678;SDS011;51094;53.864;27.676;2023-05-21T00:09:26;1.10;;;1.10;;
64678;SDS011;51094;53.864;27.676;2023-05-21T00:11:53;0.93;;;0.93;;
64678;SDS011;51094;53.864;27.676;2023-05-21T00:14:19;1.00;;;1.00;;
64678;SDS011;51094;53.864;27.676;2023-05-21T00:16:46;1.10;;;1.10;;
64678;SDS011;51094;53.864;27.676;2023-05-21T00:19:14;1.13;;;1.13;;
64678;SDS011;51094;53.864;27.676;2023-05-21T00:21:41;1.23;;;1.23;;
64678;SDS011;51094;53.864;27.676;2023-05-21T00:24:08;1.00;;;1.00;;
64678;SDS011;51094;53.864;27.676;2023-05-21T00:26:35;1.10;;;1.10;;
64678;SDS011;51094;53.864;27.676;2023-05-21T00:29:02;1.08;;;1.08;;
64678;SDS011;51094;53.864;27.676;2023-05-21T00:31:29;1.30;;;1.30;;
64678;SDS011;51094;53.864;27.676;2023-05-21T00:33:58;1.00;;;1.00;;
64678;SDS011;51094;53.864;27.676;2023-05-21T00:36:24;0.90;;;0.90;;
64678;SDS011;51094;53.864;27.676;2023-05-21T00:38:51;1.00;;;1.00;;
64678;SDS011;51094;53.864;27.676;2023-05-21T00:41:18;1.02;;;1.02;;
64678;SDS011;51094;53.864;27.676;2023-05-21T00:43:45;1.13;;;1.13;;
64678;SDS011;51094;53.864;27.676;2023-05-21T00:46:14;1.10;;;1.10;;
64678;SDS011;51094;53.864;27.676;2023-05-21T00:51:12;0.98;;;0.98;;
64678;SDS011;51094;53.864;27.676;2023-05-21T00:53:40;1.20;;;1.20;;
64678;SDS011;51094;53.864;27.676;2023-05-21T00:56:07;1.05;;;1.05;;
64678;SDS011;51094;53.864;27.676;2023-05-21T00:58:34;1.13;;;1.13;;
64678;SDS011;51094;53.864;27.676;2023-05-21T01:01:01;1.30;;;1.30;;
64678;SDS011;51094;53.864;27.676;2023-05-21T01:03:29;1.15;;;1.15;;
64678;SDS011;51094;53.864;27.676;2023-05-21T01:05:56;1.17;;;1.17;;
64678;SDS011;51094;53.864;27.676;2023-05-21T01:08:25;1.17;;;1.17;;
64678;SDS011;51094;53.864;27.676;2023-05-21T01:10:54;1.00;;;1.00;;
64678;SDS011;51094;53.864;27.676;2023-05-21T01:13:23;1.10;;;1.10;;
64678;SDS011;51094;53.864;27.676;2023-05-21T01:15:51;1.10;;;1.10;;
64678;SDS011;51094;53.864;27.676;2023-05-21T01:18:19;1.25;;;1.25;;
64678;SDS011;51094;53.864;27.676;2023-05-21T01:20:46;1.30;;;1.30;;
64678;SDS011;51094;53.864;27.676;2023-05-21T01:23:17;1.40;;;1.40;;
64678;SDS011;51094;53.864;27.676;2023-05-21T01:25:46;1.10;;;1.10;;
64678;SDS011;51094;53.864;27.676;2023-05-21T01:28:13;1.30;;;1.30;;
64678;SDS011;51094;53.864;27.676;2023-05-21T01:30:40;1.27;;;1.27;;
64678;SDS011;51094;53.864;27.676;2023-05-21T01:33:14;1.20;;;1.20;;
64678;SDS011;51094;53.864;27.676;2023-05-21T01:35:53;1.27;;;1.27;;
64678;SDS011;51094;53.864;27.676;2023-05-21T01:39:04;1.20;;;1.20;;
64678;SDS011;51094;53.864;27.676;2023-05-21T01:41:21;1.38;;;1.38;;
64678;SDS011;51094;53.864;27.676;2023-05-21T01:43:49;1.25;;;1.25;;
64678;SDS011;51094;53.864;27.676;2023-05-21T01:46:22;1.20;;;1.20;;
64678;SDS011;51094;53.864;27.676;2023-05-21T01:48:51;1.40;;;1.40;;
64678;SDS011;51094;53.864;27.676;2023-05-21T01:51:21;1.10;;;1.10;;
64678;SDS011;51094;53.864;27.676;2023-05-21T01:53:49;1.23;;;1.23;;
64678;SDS011;51094;53.864;27.676;2023-05-21T01:56:16;1.20;;;1.20;;
64678;SDS011;51094;53.864;27.676;2023-05-21T01:58:43;1.40;;;1.40;;
64678;SDS011;51094;53.864;27.676;2023-05-21T02:01:09;1.50;;;1.50;;
64678;SDS011;51094;53.864;27.676;2023-05-21T02:03:37;1.45;;;1.45;;
64678;SDS011;51094;53.864;27.676;2023-05-21T02:06:04;1.20;;;1.20;;
64678;SDS011;51094;53.864;27.676;2023-05-21T02:08:31;1.38;;;1.38;;
64678;SDS011;51094;53.864;27.676;2023-05-21T02:10:58;1.20;;;1.20;;
64678;SDS011;51094;53.864;27.676;2023-05-21T02:13:25;1.27;;;1.27;;
64678;SDS011;51094;53.864;27.676;2023-05-21T02:15:54;1.30;;;1.30;;
64678;SDS011;51094;53.864;27.676;2023-05-21T02:18:22;1.10;;;1.10;;
64678;SDS011;51094;53.864;27.676;2023-05-21T02:20:49;1.30;;;1.30;;
64678;SDS011;51094;53.864;27.676;2023-05-21T02:23:16;1.30;;;1.30;;
64678;SDS011;51094;53.864;27.676;2023-05-21T02:25:43;1.30;;;1.30;;
64678;SDS011;51094;53.864;27.676;2023-05-21T02:28:09;1.20;;;1.20;;
64678;SDS011;51094;53.864;27.676;2023-05-21T02:30:36;1.55;;;1.55;;
64678;SDS011;51094;53.864;27.676;2023-05-21T02:33:03;1.30;;;1.30;;
64678;SDS011;51094;53.864;27.676;2023-05-21T02:35:31;1.48;;;1.48;;
64678;SDS011;51094;53.864;27.676;2023-05-21T02:37:58;1.40;;;1.40;;
64678;SDS011;51094;53.864;27.676;2023-05-21T02:40:28;1.60;;;1.60;;
64678;SDS011;51094;53.864;27.676;2023-05-21T02:42:55;1.50;;;1.50;;
64678;SDS011;51094;53.864;27.676;2023-05-21T02:45:22;1.33;;;1.33;;
64678;SDS011;51094;53.864;27.676;2023-05-21T02:47:49;1.60;;;1.60;;
64678;SDS011;51094;53.864;27.676;2023-05-21T02:50:17;1.42;;;1.42;;
64678;SDS011;51094;53.864;27.676;2023-05-21T02:52:51;1.80;;;1.80;;
64678;SDS011;51094;53.864;27.676;2023-05-21T02:55:18;1.48;;;1.48;;
64678;SDS011;51094;53.864;27.676;2023-05-21T02:57:46;1.60;;;1.60;;
64678;SDS011;51094;53.864;27.676;2023-05-21T03:00:13;1.60;;;1.60;;
64678;SDS011;51094;53.864;27.676;2023-05-21T03:02:42;1.50;;;1.50;;
64678;SDS011;51094;53.864;27.676;2023-05-21T03:05:09;1.30;;;1.30;;
64678;SDS011;51094;53.864;27.676;2023-05-21T03:07:36;1.48;;;1.48;;
64678;SDS011;51094;53.864;27.676;2023-05-21T03:10:03;1.30;;;1.30;;
64678;SDS011;51094;53.864;27.676;2023-05-21T03:12:30;1.35;;;1.35;;
64678;SDS011;51094;53.864;27.676;2023-05-21T03:14:58;1.50;;;1.50;;
64678;SDS011;51094;53.864;27.676;2023-05-21T03:17:26;1.60;;;1.60;;
64678;SDS011;51094;53.864;27.676;2023-05-21T03:19:53;1.40;;;1.40;;
64678;SDS011;51094;53.864;27.676;2023-05-21T03:22:20;1.40;;;1.40;;
64678;SDS011;51094;53.864;27.676;2023-05-21T03:24:47;1.60;;;1.60;;
64678;SDS011;51094;53.864;27.676;2023-05-21T03:27:16;1.60;;;1.60;;
64678;SDS011;51094;53.864;27.676;2023-05-21T03:29:44;1.90;;;1.90;;
64678;SDS011;51094;53.864;27.676;2023-05-21T03:32:11;1.60;;;1.60;;
64678;SDS011;51094;53.864;27.676;2023-05-21T03:34:39;1.40;;;1.40;;
64678;SDS011;51094;53.864;27.676;2023-05-21T03:37:06;1.40;;;1.40;;
64678;SDS011;51094;53.864;27.676;2023-05-21T03:39:33;1.50;;;1.50;;
64678;SDS011;51094;53.864;27.676;2023-05-21T03:42:00;1.67;;;1.67;;
64678;SDS011;51094;53.864;27.676;2023-05-21T03:44:37;1.50;;;1.50;;
64678;SDS011;51094;53.864;27.676;2023-05-21T03:47:22;1.50;;;1.50;;
64678;SDS011;51094;53.864;27.676;2023-05-21T03:49:50;1.45;;;1.45;;
64678;SDS011;51094;53.864;27.676;2023-05-21T03:52:17;1.35;;;1.35;;
64678;SDS011;51094;53.864;27.676;2023-05-21T03:54:44;1.33;;;1.33;;
64678;SDS011;51094;53.864;27.676;2023-05-21T03:57:11;1.30;;;1.30;;
64678;SDS011;51094;53.864;27.676;2023-05-21T03:59:39;1.40;;;1.40;;
64678;SDS011;51094;53.864;27.676;2023-05-21T04:02:05;1.35;;;1.35;;
64678;SDS011;51094;53.864;27.676;2023-05-21T04:04:33;1.23;;;1.23;;
64678;SDS011;51094;53.864;27.676;2023-05-21T04:06:59;1.33;;;1.33;;
64678;SDS011;51094;53.864;27.676;2023-05-21T04:09:26;1.40;;;1.40;;
64678;SDS011;51094;53.864;27.676;2023-05-21T04:11:53;1.60;;;1.60;;
64678;SDS011;51094;53.864;27.676;2023-05-21T04:14:23;1.45;;;1.45;;
64678;SDS011;51094;53.864;27.676;2023-05-21T04:16:51;1.48;;;1.48;;
64678;SDS011;51094;53.864;27.676;2023-05-21T04:19:19;1.42;;;1.42;;
64678;SDS011;51094;53.864;27.676;2023-05-21T04:21:47;1.38;;;1.38;;
64678;SDS011;51094;53.864;27.676;2023-05-21T04:24:13;1.50;;;1.50;;
64678;SDS011;51094;53.864;27.676;2023-05-21T04:26:47;1.48;;;1.48;;
64678;SDS011;51094;53.864;27.676;2023-05-21T04:29:15;1.33;;;1.33;;
64678;SDS011;51094;53.864;27.676;2023-05-21T04:31:43;1.30;;;1.30;;
64678;SDS011;51094;53.864;27.676;2023-05-21T04:34:12;1.17;;;1.17;;
64678;SDS011;51094;53.864;27.676;2023-05-21T04:36:39;1.30;;;1.30;;
64678;SDS011;51094;53.864;27.676;2023-05-21T04:39:07;1.52;;;1.52;;
64678;SDS011;51094;53.864;27.676;2023-05-21T04:41:34;1.30;;;1.30;;
64678;SDS011;51094;53.864;27.676;2023-05-21T04:44:02;1.60;;;1.60;;
64678;SDS011;51094;53.864;27.676;2023-05-21T04:46:30;1.30;;;1.30;;
64678;SDS011;51094;53.864;27.676;2023-05-21T04:49:02;1.30;;;1.30;;
64678;SDS011;51094;53.864;27.676;2023-05-21T04:51:29;1.50;;;1.50;;
64678;SDS011;51094;53.864;27.676;2023-05-21T04:53:56;1.55;;;1.55;;
64678;SDS011;51094;53.864;27.676;2023-05-21T04:56:23;1.60;;;1.60;;
64678;SDS011;51094;53.864;27.676;2023-05-21T04:58:53;1.60;;;1.60;;
64678;SDS011;51094;53.864;27.676;2023-05-21T05:01:20;1.60;;;1.60;;
64678;SDS011;51094;53.864;27.676;2023-05-21T05:03:54;1.60;;;1.60;;
64678;SDS011;51094;53.864;27.676;2023-05-21T05:06:21;1.48;;;1.48;;
64678;SDS011;51094;53.864;27.676;2023-05-21T05:08:51;1.73;;;1.73;;
64678;SDS011;51094;53.864;27.676;2023-05-21T05:11:19;1.85;;;1.85;;
64678;SDS011;51094;53.864;27.676;2023-05-21T05:13:46;1.50;;;1.50;;
64678;SDS011;51094;53.864;27.676;2023-05-21T05:16:13;1.40;;;1.40;;
64678;SDS011;51094;53.864;27.676;2023-05-21T05:18:50;1.25;;;1.25;;
64678;SDS011;51094;53.864;27.676;2023-05-21T05:21:19;1.50;;;1.50;;
64678;SDS011;51094;53.864;27.676;2023-05-21T05:23:47;1.63;;;1.60;;
64678;SDS011;51094;53.864;27.676;2023-05-21T05:26:14;1.30;;;1.30;;
64678;SDS011;51094;53.864;27.676;2023-05-21T05:28:41;1.50;;;1.50;;
64678;SDS011;51094;53.864;27.676;2023-05-21T05:31:08;1.40;;;1.40;;
64678;SDS011;51094;53.864;27.676;2023-05-21T05:33:35;1.30;;;1.30;;
64678;SDS011;51094;53.864;27.676;2023-05-21T05:36:02;1.50;;;1.50;;
64678;SDS011;51094;53.864;27.676;2023-05-21T05:38:29;1.40;;;1.40;;
64678;SDS011;51094;53.864;27.676;2023-05-21T05:40:56;1.50;;;1.50;;
64678;SDS011;51094;53.864;27.676;2023-05-21T05:43:24;1.45;;;1.45;;
64678;SDS011;51094;53.864;27.676;2023-05-21T05:45:51;1.33;;;1.33;;
64678;SDS011;51094;53.864;27.676;2023-05-21T05:48:19;1.30;;;1.30;;
64678;SDS011;51094;53.864;27.676;2023-05-21T05:50:46;1.15;;;1.15;;
64678;SDS011;51094;53.864;27.676;2023-05-21T05:53:13;1.60;;;1.60;;
64678;SDS011;51094;53.864;27.676;2023-05-21T05:55:41;1.20;;;1.20;;
64678;SDS011;51094;53.864;27.676;2023-05-21T05:58:08;1.20;;;1.20;;
64678;SDS011;51094;53.864;27.676;2023-05-21T06:00:47;1.20;;;1.20;;
64678;SDS011;51094;53.864;27.676;2023-05-21T06:03:14;1.10;;;1.10;;
64678;SDS011;51094;53.864;27.676;2023-05-21T06:05:42;1.60;;;1.60;;
64678;SDS011;51094;53.864;27.676;2023-05-21T06:08:10;1.20;;;1.20;;
64678;SDS011;51094;53.864;27.676;2023-05-21T06:10:36;1.15;;;1.15;;
64678;SDS011;51094;53.864;27.676;2023-05-21T06:13:03;1.20;;;1.20;;
64678;SDS011;51094;53.864;27.676;2023-05-21T06:15:30;1.17;;;1.17;;
64678;SDS011;51094;53.864;27.676;2023-05-21T06:17:57;1.30;;;1.30;;
64678;SDS011;51094;53.864;27.676;2023-05-21T06:20:24;1.50;;;1.50;;
64678;SDS011;51094;53.864;27.676;2023-05-21T06:22:51;1.38;;;1.38;;
64678;SDS011;51094;53.864;27.676;2023-05-21T06:25:17;1.20;;;1.20;;
64678;SDS011;51094;53.864;27.676;2023-05-21T06:27:45;1.20;;;1.20;;
64678;SDS011;51094;53.864;27.676;2023-05-21T06:30:17;1.30;;;1.30;;
64678;SDS011;51094;53.864;27.676;2023-05-21T06:32:44;0.95;;;0.95;;
64678;SDS011;51094;53.864;27.676;2023-05-21T06:35:12;1.00;;;1.00;;
64678;SDS011;51094;53.864;27.676;2023-05-21T06:37:39;1.00;;;1.00;;
64678;SDS011;51094;53.864;27.676;2023-05-21T06:40:06;1.10;;;1.10;;
64678;SDS011;51094;53.864;27.676;2023-05-21T06:42:33;1.38;;;1.38;;
64678;SDS011;51094;53.864;27.676;2023-05-21T06:45:38;3.67;;;3.67;;
64678;SDS011;51094;53.864;27.676;2023-05-21T06:48:19;1.10;;;1.10;;
64678;SDS011;51094;53.864;27.676;2023-05-21T06:50:47;1.00;;;1.00;;
64678;SDS011;51094;53.864;27.676;2023-05-21T06:53:14;1.27;;;1.27;;
64678;SDS011;51094;53.864;27.676;2023-05-21T06:55:43;1.15;;;1.15;;
64678;SDS011;51094;53.864;27.676;2023-05-21T06:58:20;1.08;;;1.08;;
64678;SDS011;51094;53.864;27.676;2023-05-21T07:00:47;0.80;;;0.80;;
64678;SDS011;51094;53.864;27.676;2023-05-21T07:03:14;0.90;;;0.90;;
64678;SDS011;51094;53.864;27.676;2023-05-21T07:05:41;0.90;;;0.90;;
64678;SDS011;51094;53.864;27.676;2023-05-21T07:08:09;0.90;;;0.90;;
64678;SDS011;51094;53.864;27.676;2023-05-21T07:10:37;0.80;;;0.80;;
64678;SDS011;51094;53.864;27.676;2023-05-21T07:13:04;0.80;;;0.80;;
64678;SDS011;51094;53.864;27.676;2023-05-21T07:15:31;0.90;;;0.90;;
64678;SDS011;51094;53.864;27.676;2023-05-21T07:18:00;0.80;;;0.80;;
64678;SDS011;51094;53.864;27.676;2023-05-21T07:20:27;0.90;;;0.90;;
64678;SDS011;51094;53.864;27.676;2023-05-21T07:22:57;0.70;;;0.70;;
64678;SDS011;51094;53.864;27.676;2023-05-21T07:25:24;0.70;;;0.70;;
64678;SDS011;51094;53.864;27.676;2023-05-21T07:27:51;0.90;;;0.90;;
64678;SDS011;51094;53.864;27.676;2023-05-21T07:30:18;0.80;;;0.80;;
64678;SDS011;51094;53.864;27.676;2023-05-21T07:32:46;0.80;;;0.80;;
64678;SDS011;51094;53.864;27.676;2023-05-21T07:35:13;0.70;;;0.70;;
64678;SDS011;51094;53.864;27.676;2023-05-21T07:37:40;0.60;;;0.60;;
64678;SDS011;51094;53.864;27.676;2023-05-21T07:40:08;0.70;;;0.70;;
64678;SDS011;51094;53.864;27.676;2023-05-21T07:42:36;0.70;;;0.70;;
64678;SDS011;51094;53.864;27.676;2023-05-21T07:45:03;0.60;;;0.60;;
64678;SDS011;51094;53.864;27.676;2023-05-21T07:47:34;0.63;;;0.63;;
64678;SDS011;51094;53.864;27.676;2023-05-21T07:50:02;0.50;;;0.50;;
64678;SDS011;51094;53.864;27.676;2023-05-21T07:52:28;0.70;;;0.70;;
64678;SDS011;51094;53.864;27.676;2023-05-21T07:54:56;1.05;;;1.00;;
64678;SDS011;51094;53.864;27.676;2023-05-21T07:57:24;0.50;;;0.50;;
64678;SDS011;51094;53.864;27.676;2023-05-21T07:59:57;0.52;;;0.52;;
64678;SDS011;51094;53.864;27.676;2023-05-21T08:02:24;0.60;;;0.60;;
64678;SDS011;51094;53.864;27.676;2023-05-21T08:04:52;0.50;;;0.50;;
64678;SDS011;51094;53.864;27.676;2023-05-21T08:07:20;0.40;;;0.40;;
64678;SDS011;51094;53.864;27.676;2023-05-21T08:09:47;0.60;;;0.60;;
64678;SDS011;51094;53.864;27.676;2023-05-21T08:12:14;0.55;;;0.55;;
64678;SDS011;51094;53.864;27.676;2023-05-21T08:14:42;0.60;;;0.60;;
64678;SDS011;51094;53.864;27.676;2023-05-21T08:17:11;0.60;;;0.60;;
64678;SDS011;51094;53.864;27.676;2023-05-21T08:19:38;0.60;;;0.60;;
64678;SDS011;51094;53.864;27.676;2023-05-21T08:22:05;0.47;;;0.47;;
64678;SDS011;51094;53.864;27.676;2023-05-21T08:24:34;0.60;;;0.60;;
64678;SDS011;51094;53.864;27.676;2023-05-21T08:27:01;0.60;;;0.60;;
64678;SDS011;51094;53.864;27.676;2023-05-21T08:29:29;0.50;;;0.50;;
64678;SDS011;51094;53.864;27.676;2023-05-21T08:31:58;0.80;;;0.80;;
64678;SDS011;51094;53.864;27.676;2023-05-21T08:34:25;0.50;;;0.50;;
64678;SDS011;51094;53.864;27.676;2023-05-21T08:37:15;0.50;;;0.50;;
64678;SDS011;51094;53.864;27.676;2023-05-21T08:39:59;0.57;;;0.57;;
64678;SDS011;51094;53.864;27.676;2023-05-21T08:42:44;0.50;;;0.50;;
64678;SDS011;51094;53.864;27.676;2023-05-21T08:45:20;0.40;;;0.40;;
64678;SDS011;51094;53.864;27.676;2023-05-21T08:47:55;0.40;;;0.40;;
64678;SDS011;51094;53.864;27.676;2023-05-21T08:50:26;0.50;;;0.50;;
64678;SDS011;51094;53.864;27.676;2023-05-21T08:52:56;0.57;;;0.57;;
64678;SDS011;51094;53.864;27.676;2023-05-21T08:55:24;0.50;;;0.50;;
64678;SDS011;51094;53.864;27.676;2023-05-21T08:57:53;0.50;;;0.50;;
64678;SDS011;51094;53.864;27.676;2023-05-21T09:00:22;0.43;;;0.43;;
64678;SDS011;51094;53.864;27.676;2023-05-21T09:02:51;0.50;;;0.50;;
64678;SDS011;51094;53.864;27.676;2023-05-21T09:05:20;0.50;;;0.50;;
64678;SDS011;51094;53.864;27.676;2023-05-21T09:07:58;0.50;;;0.50;;
64678;SDS011;51094;53.864;27.676;2023-05-21T09:10:57;0.50;;;0.50;;
64678;SDS011;51094;53.864;27.676;2023-05-21T09:13:31;0.47;;;0.47;;
64678;SDS011;51094;53.864;27.676;2023-05-21T09:16:02;0.55;;;0.55;;
64678;SDS011;51094;53.864;27.676;2023-05-21T09:18:31;0.68;;;0.68;;
64678;SDS011;51094;53.864;27.676;2023-05-21T09:21:23;0.60;;;0.60;;
64678;SDS011;51094;53.864;27.676;2023-05-21T09:23:56;0.50;;;0.50;;
64678;SDS011;51094;53.864;27.676;2023-05-21T09:26:24;0.60;;;0.60;;
64678;SDS011;51094;53.864;27.676;2023-05-21T09:28:57;0.60;;;0.60;;
64678;SDS011;51094;53.864;27.676;2023-05-21T09:31:25;0.80;;;0.80;;
64678;SDS011;51094;53.864;27.676;2023-05-21T09:33:53;0.57;;;0.57;;
64678;SDS011;51094;53.864;27.676;2023-05-21T09:36:22;0.50;;;0.50;;
64678;SDS011;51094;53.864;27.676;2023-05-21T09:38:49;0.50;;;0.50;;
64678;SDS011;51094;53.864;27.676;2023-05-21T09:41:18;0.50;;;0.50;;
64678;SDS011;51094;53.864;27.676;2023-05-21T09:43:47;0.60;;;0.60;;
64678;SDS011;51094;53.864;27.676;2023-05-21T09:46:15;0.52;;;0.52;;
64678;SDS011;51094;53.864;27.676;2023-05-21T09:48:52;0.50;;;0.50;;
64678;SDS011;51094;53.864;27.676;2023-05-21T09:51:19;0.50;;;0.50;;
64678;SDS011;51094;53.864;27.676;2023-05-21T09:56:22;0.90;;;0.50;;
64678;SDS011;51094;53.864;27.676;2023-05-21T09:58:51;1.10;;;1.00;;
64678;SDS011;51094;53.864;27.676;2023-05-21T10:01:23;0.40;;;0.40;;
64678;SDS011;51094;53.864;27.676;2023-05-21T10:03:54;0.43;;;0.43;;
64678;SDS011;51094;53.864;27.676;2023-05-21T10:06:26;0.50;;;0.50;;
64678;SDS011;51094;53.864;27.676;2023-05-21T10:08:54;0.50;;;0.50;;
64678;SDS011;51094;53.864;27.676;2023-05-21T10:11:24;0.77;;;0.77;;
64678;SDS011;51094;53.864;27.676;2023-05-21T10:13:56;0.60;;;0.60;;
64678;SDS011;51094;53.864;27.676;2023-05-21T10:16:29;0.50;;;0.50;;
64678;SDS011;51094;53.864;27.676;2023-05-21T10:18:59;0.70;;;0.70;;
64678;SDS011;51094;53.864;27.676;2023-05-21T10:21:29;0.50;;;0.50;;
64678;SDS011;51094;53.864;27.676;2023-05-21T10:23:58;0.60;;;0.60;;
64678;SDS011;51094;53.864;27.676;2023-05-21T10:26:27;0.50;;;0.50;;
64678;SDS011;51094;53.864;27.676;2023-05-21T10:28:55;0.40;;;0.40;;
64678;SDS011;51094;53.864;27.676;2023-05-21T10:31:25;0.50;;;0.50;;
64678;SDS011;51094;53.864;27.676;2023-05-21T10:33:53;0.52;;;0.52;;
64678;SDS011;51094;53.864;27.676;2023-05-21T10:36:22;0.60;;;0.60;;
64678;SDS011;51094;53.864;27.676;2023-05-21T10:38:50;0.40;;;0.40;;
64678;SDS011;51094;53.864;27.676;2023-05-21T10:41:19;0.50;;;0.50;;
64678;SDS011;51094;53.864;27.676;2023-05-21T10:46:42;0.50;;;0.50;;
64678;SDS011;51094;53.864;27.676;2023-05-21T10:55:46;0.55;;;0.55;;
64678;SDS011;51094;53.864;27.676;2023-05-21T11:01:38;0.50;;;0.50;;
64678;SDS011;51094;53.864;27.676;2023-05-21T11:04:07;0.50;;;0.50;;
64678;SDS011;51094;53.864;27.676;2023-05-21T11:06:34;0.50;;;0.50;;
64678;SDS011;51094;53.864;27.676;2023-05-21T11:09:14;0.40;;;0.40;;
64678;SDS011;51094;53.864;27.676;2023-05-21T11:11:42;1.55;;;0.85;;
64678;SDS011;51094;53.864;27.676;2023-05-21T11:14:25;0.60;;;0.60;;
64678;SDS011;51094;53.864;27.676;2023-05-21T11:17:14;0.40;;;0.40;;
64678;SDS011;51094;53.864;27.676;2023-05-21T11:19:42;0.60;;;0.60;;
64678;SDS011;51094;53.864;27.676;2023-05-21T11:22:20;0.60;;;0.60;;
64678;SDS011;51094;53.864;27.676;2023-05-21T11:24:50;0.60;;;0.60;;
64678;SDS011;51094;53.864;27.676;2023-05-21T11:33:16;0.50;;;0.50;;
64678;SDS011;51094;53.864;27.676;2023-05-21T11:38:20;0.60;;;0.60;;
64678;SDS011;51094;53.864;27.676;2023-05-21T11:40:51;0.40;;;0.40;;
64678;SDS011;51094;53.864;27.676;2023-05-21T11:43:21;0.50;;;0.50;;
64678;SDS011;51094;53.864;27.676;2023-05-21T11:45:48;0.50;;;0.50;;
64678;SDS011;51094;53.864;27.676;2023-05-21T11:48:18;0.55;;;0.55;;
64678;SDS011;51094;53.864;27.676;2023-05-21T11:50:53;0.40;;;0.40;;
64678;SDS011;51094;53.864;27.676;2023-05-21T11:53:20;0.40;;;0.40;;
64678;SDS011;51094;53.864;27.676;2023-05-21T11:55:47;0.60;;;0.60;;
64678;SDS011;51094;53.864;27.676;2023-05-21T11:58:13;0.52;;;0.52;;
64678;SDS011;51094;53.864;27.676;2023-05-21T12:00:42;0.50;;;0.50;;
64678;SDS011;51094;53.864;27.676;2023-05-21T12:03:12;0.65;;;0.65;;
64678;SDS011;51094;53.864;27.676;2023-05-21T12:05:48;0.60;;;0.60;;
64678;SDS011;51094;53.864;27.676;2023-05-21T12:08:24;0.60;;;0.60;;
64678;SDS011;51094;53.864;27.676;2023-05-21T12:10:57;0.50;;;0.50;;
64678;SDS011;51094;53.864;27.676;2023-05-21T12:13:25;0.50;;;0.50;;
64678;SDS011;51094;53.864;27.676;2023-05-21T12:15:53;0.60;;;0.60;;
64678;SDS011;51094;53.864;27.676;2023-05-21T12:18:20;0.52;;;0.52;;
64678;SDS011;51094;53.864;27.676;2023-05-21T12:20:49;0.60;;;0.60;;
64678;SDS011;51094;53.864;27.676;2023-05-21T12:23:18;0.60;;;0.60;;
64678;SDS011;51094;53.864;27.676;2023-05-21T12:25:46;0.60;;;0.60;;
64678;SDS011;51094;53.864;27.676;2023-05-21T12:28:12;0.60;;;0.60;;
64678;SDS011;51094;53.864;27.676;2023-05-21T12:30:40;0.60;;;0.60;;
64678;SDS011;51094;53.864;27.676;2023-05-21T12:33:07;0.50;;;0.50;;
64678;SDS011;51094;53.864;27.676;2023-05-21T12:35:34;0.60;;;0.60;;
64678;SDS011;51094;53.864;27.676;2023-05-21T12:38:02;0.67;;;0.67;;
64678;SDS011;51094;53.864;27.676;2023-05-21T12:40:35;0.80;;;0.80;;
64678;SDS011;51094;53.864;27.676;2023-05-21T12:43:06;0.70;;;0.70;;
64678;SDS011;51094;53.864;27.676;2023-05-21T12:45:33;0.52;;;0.52;;
64678;SDS011;51094;53.864;27.676;2023-05-21T12:50:29;0.50;;;0.50;;
64678;SDS011;51094;53.864;27.676;2023-05-21T12:52:56;0.60;;;0.60;;
64678;SDS011;51094;53.864;27.676;2023-05-21T12:55:26;0.60;;;0.60;;
64678;SDS011;51094;53.864;27.676;2023-05-21T12:58:01;0.60;;;0.60;;
64678;SDS011;51094;53.864;27.676;2023-05-21T13:00:30;0.57;;;0.57;;
64678;SDS011;51094;53.864;27.676;2023-05-21T13:02:58;0.60;;;0.60;;
64678;SDS011;51094;53.864;27.676;2023-05-21T13:05:27;0.50;;;0.50;;
64678;SDS011;51094;53.864;27.676;2023-05-21T13:07:54;0.70;;;0.70;;
64678;SDS011;51094;53.864;27.676;2023-05-21T13:10:21;0.50;;;0.50;;
64678;SDS011;51094;53.864;27.676;2023-05-21T13:12:48;0.60;;;0.60;;
64678;SDS011;51094;53.864;27.676;2023-05-21T13:15:15;0.70;;;0.70;;
64678;SDS011;51094;53.864;27.676;2023-05-21T13:17:46;0.50;;;0.50;;
64678;SDS011;51094;53.864;27.676;2023-05-21T13:22:48;3.78;;;1.52;;
64678;SDS011;51094;53.864;27.676;2023-05-21T13:25:22;0.70;;;0.70;;
64678;SDS011;51094;53.864;27.676;2023-05-21T13:27:51;0.60;;;0.60;;
64678;SDS011;51094;53.864;27.676;2023-05-21T13:30:19;0.80;;;0.80;;
64678;SDS011;51094;53.864;27.676;2023-05-21T13:32:49;0.50;;;0.50;;
64678;SDS011;51094;53.864;27.676;2023-05-21T13:35:17;0.60;;;0.60;;
64678;SDS011;51094;53.864;27.676;2023-05-21T13:37:45;0.77;;;0.77;;
64678;SDS011;51094;53.864;27.676;2023-05-21T13:40:12;0.60;;;0.60;;
64678;SDS011;51094;53.864;27.676;2023-05-21T13:45:13;0.70;;;0.70;;
64678;SDS011;51094;53.864;27.676;2023-05-21T13:47:42;0.70;;;0.70;;
64678;SDS011;51094;53.864;27.676;2023-05-21T13:50:10;0.60;;;0.60;;
64678;SDS011;51094;53.864;27.676;2023-05-21T13:52:37;0.70;;;0.70;;
64678;SDS011;51094;53.864;27.676;2023-05-21T13:55:05;0.50;;;0.50;;
64678;SDS011;51094;53.864;27.676;2023-05-21T13:57:33;0.68;;;0.68;;
64678;SDS011;51094;53.864;27.676;2023-05-21T14:00:00;0.70;;;0.70;;
64678;SDS011;51094;53.864;27.676;2023-05-21T14:02:32;0.57;;;0.57;;
64678;SDS011;51094;53.864;27.676;2023-05-21T14:05:00;0.60;;;0.60;;
64678;SDS011;51094;53.864;27.676;2023-05-21T14:07:27;0.50;;;0.50;;
64678;SDS011;51094;53.864;27.676;2023-05-21T14:09:55;0.60;;;0.60;;
64678;SDS011;51094;53.864;27.676;2023-05-21T14:12:22;0.60;;;0.60;;
64678;SDS011;51094;53.864;27.676;2023-05-21T14:14:49;0.75;;;0.70;;
64678;SDS011;51094;53.864;27.676;2023-05-21T14:17:16;0.50;;;0.50;;
64678;SDS011;51094;53.864;27.676;2023-05-21T14:19:43;0.70;;;0.70;;
64678;SDS011;51094;53.864;27.676;2023-05-21T14:22:11;0.50;;;0.50;;
64678;SDS011;51094;53.864;27.676;2023-05-21T14:24:38;0.50;;;0.50;;
64678;SDS011;51094;53.864;27.676;2023-05-21T14:27:05;0.60;;;0.60;;
64678;SDS011;51094;53.864;27.676;2023-05-21T14:29:32;0.60;;;0.60;;
64678;SDS011;51094;53.864;27.676;2023-05-21T14:31:59;0.60;;;0.60;;
64678;SDS011;51094;53.864;27.676;2023-05-21T14:34:26;0.80;;;0.80;;
64678;SDS011;51094;53.864;27.676;2023-05-21T14:36:53;0.80;;;0.80;;
64678;SDS011;51094;53.864;27.676;2023-05-21T14:39:20;0.95;;;0.80;;
64678;SDS011;51094;53.864;27.676;2023-05-21T14:41:47;0.70;;;0.70;;
64678;SDS011;51094;53.864;27.676;2023-05-21T14:44:13;0.50;;;0.50;;
64678;SDS011;51094;53.864;27.676;2023-05-21T14:46:41;0.65;;;0.65;;
64678;SDS011;51094;53.864;27.676;2023-05-21T14:49:09;15.35;;;3.28;;
64678;SDS011;51094;53.864;27.676;2023-05-21T14:51:37;0.60;;;0.60;;
64678;SDS011;51094;53.864;27.676;2023-05-21T14:54:04;0.60;;;0.60;;
64678;SDS011;51094;53.864;27.676;2023-05-21T14:56:31;0.70;;;0.70;;
64678;SDS011;51094;53.864;27.676;2023-05-21T14:58:58;0.88;;;0.88;;
64678;SDS011;51094;53.864;27.676;2023-05-21T15:01:26;0.70;;;0.70;;
64678;SDS011;51094;53.864;27.676;2023-05-21T15:03:53;0.40;;;0.40;;
64678;SDS011;51094;53.864;27.676;2023-05-21T15:06:23;0.50;;;0.50;;
64678;SDS011;51094;53.864;27.676;2023-05-21T15:08:50;0.60;;;0.60;;
64678;SDS011;51094;53.864;27.676;2023-05-21T15:11:17;0.80;;;0.80;;
64678;SDS011;51094;53.864;27.676;2023-05-21T15:13:44;0.80;;;0.80;;
64678;SDS011;51094;53.864;27.676;2023-05-21T15:16:11;0.80;;;0.80;;
64678;SDS011;51094;53.864;27.676;2023-05-21T15:18:45;0.70;;;0.70;;